createdAt,value
2023-04-16T00:02:41.758Z,87.08
2023-04-16T00:05:44.491Z,87.08
2023-04-16T00:08:46.863Z,86.72
2023-04-16T00:11:49.541Z,86.81
2023-04-16T00:14:51.869Z,87.02
2023-04-16T00:17:54.519Z,87.08
2023-04-16T00:20:56.837Z,87.25
2023-04-16T00:23:59.538Z,87.38
2023-04-16T00:27:02.092Z,87.43
2023-04-16T00:30:07.911Z,87.60
2023-04-16T00:33:10.332Z,87.60
2023-04-16T00:36:13.025Z,87.65
2023-04-16T00:39:15.655Z,87.65
2023-04-16T00:42:18.384Z,87.69
2023-04-16T00:45:20.685Z,87.87
2023-04-16T00:48:23.835Z,87.82
2023-04-16T00:51:27.098Z,87.95
2023-04-16T00:54:31.906Z,87.84
2023-04-16T00:57:34.192Z,87.82
2023-04-16T01:00:36.806Z,88.01
2023-04-16T01:03:44.288Z,88.13
2023-04-16T01:06:46.993Z,88.46
2023-04-16T01:09:49.610Z,88.37
2023-04-16T01:12:52.251Z,88.38
2023-04-16T01:15:54.650Z,88.34
2023-04-16T01:18:57.570Z,88.32
2023-04-16T01:22:00.284Z,88.27
2023-04-16T01:25:03.110Z,88.34
2023-04-16T01:28:06.471Z,88.42
2023-04-16T01:31:09.130Z,88.61
2023-04-16T01:34:12.949Z,88.62
2023-04-16T01:37:15.787Z,88.37
2023-04-16T01:40:18.931Z,88.41
2023-04-16T01:43:21.548Z,88.39
2023-04-16T01:46:29.072Z,88.34
2023-04-16T01:49:31.815Z,88.21
2023-04-16T01:52:34.143Z,88.07
2023-04-16T01:55:36.801Z,87.82
2023-04-16T01:58:39.821Z,87.86
2023-04-16T02:01:43.369Z,87.79
2023-04-16T02:04:46.600Z,87.72
2023-04-16T02:07:49.056Z,87.66
2023-04-16T02:10:52.482Z,87.71
2023-04-16T02:13:55.070Z,87.77
2023-04-16T02:16:58.174Z,87.83
2023-04-16T02:20:03.325Z,87.75
2023-04-16T02:23:06.270Z,87.71
2023-04-16T02:26:08.615Z,87.41
2023-04-16T02:29:12.335Z,87.21
2023-04-16T02:32:15.464Z,87.00
2023-04-16T02:35:18.874Z,87.33
2023-04-16T02:38:21.182Z,87.26
2023-04-16T02:41:23.888Z,87.26
2023-04-16T02:44:26.247Z,87.22
2023-04-16T02:47:28.962Z,86.94
2023-04-16T02:50:31.436Z,87.03
2023-04-16T02:53:34.325Z,86.93
2023-04-16T02:56:36.765Z,86.95
2023-04-16T02:59:39.356Z,87.00
2023-04-16T03:02:42.652Z,87.05
2023-04-16T03:05:45.640Z,87.20
2023-04-16T03:08:47.972Z,87.28
2023-04-16T03:11:51.095Z,87.41
2023-04-16T03:14:53.485Z,87.26
2023-04-16T03:17:56.313Z,87.25
2023-04-16T03:20:58.765Z,87.40
2023-04-16T03:24:01.845Z,87.57
2023-04-16T03:27:04.390Z,87.65
2023-04-16T03:30:08.545Z,87.64
2023-04-16T03:33:11.642Z,87.57
2023-04-16T03:36:15.889Z,87.35
2023-04-16T03:39:18.453Z,87.09
2023-04-16T03:42:21.593Z,87.14
2023-04-16T03:45:23.969Z,87.20
2023-04-16T03:48:26.734Z,87.03
2023-04-16T03:51:29.358Z,86.85
2023-04-16T03:54:32.448Z,86.66
2023-04-16T03:57:37.825Z,86.62
2023-04-16T04:00:42.934Z,86.54
2023-04-16T04:03:46.124Z,86.37
2023-04-16T04:06:48.839Z,86.31
2023-04-16T04:09:51.597Z,86.53
2023-04-16T04:12:54.121Z,86.63
2023-04-16T04:15:56.895Z,86.96
2023-04-16T04:19:00.378Z,87.16
2023-04-16T04:22:03.680Z,87.16
2023-04-16T04:25:06.625Z,87.17
2023-04-16T04:28:09.247Z,87.21
2023-04-16T04:31:11.786Z,87.07
2023-04-16T04:34:15.664Z,87.05
2023-04-16T04:37:18.057Z,86.94
2023-04-16T04:40:21.055Z,86.89
2023-04-16T04:43:24.022Z,86.77
2023-04-16T04:46:26.670Z,86.63
2023-04-16T04:49:30.506Z,86.53
2023-04-16T04:52:33.180Z,86.47
2023-04-16T04:55:37.499Z,86.44
2023-04-16T04:58:41.185Z,86.47
2023-04-16T05:01:43.606Z,86.46
2023-04-16T05:04:46.291Z,86.59
2023-04-16T05:07:48.617Z,86.77
2023-04-16T05:10:51.203Z,86.82
2023-04-16T05:13:53.604Z,86.75
2023-04-16T05:16:56.597Z,86.77
2023-04-16T05:20:00.359Z,86.82
2023-04-16T05:23:03.285Z,86.66
2023-04-16T05:26:05.601Z,86.58
2023-04-16T05:29:11.435Z,86.50
2023-04-16T05:32:14.022Z,86.49
2023-04-16T05:35:17.614Z,86.64
2023-04-16T05:38:20.248Z,86.85
2023-04-16T05:41:22.960Z,86.75
2023-04-16T05:44:26.052Z,86.65
2023-04-16T05:47:28.712Z,86.70
2023-04-16T05:50:31.184Z,86.66
2023-04-16T05:53:33.818Z,86.54
2023-04-16T05:56:36.201Z,86.63
2023-04-16T05:59:38.788Z,86.55
2023-04-16T06:02:41.405Z,86.21
2023-04-16T06:05:44.715Z,85.66
2023-04-16T06:08:47.081Z,85.63
2023-04-16T06:11:49.691Z,85.44
2023-04-16T06:14:52.093Z,85.04
2023-04-16T06:17:55.861Z,84.82
2023-04-16T06:21:00.979Z,84.18
2023-04-16T06:24:03.760Z,84.13
2023-04-16T06:27:06.162Z,84.26
2023-04-16T06:30:13.575Z,84.41
2023-04-16T06:33:16.329Z,84.53
2023-04-16T06:36:18.989Z,84.34
2023-04-16T06:39:21.916Z,84.45
2023-04-16T06:42:24.521Z,83.77
2023-04-16T06:45:26.915Z,83.82
2023-04-16T06:48:30.010Z,83.93
2023-04-16T06:51:32.679Z,83.36
2023-04-16T06:54:35.548Z,82.67
2023-04-16T06:57:37.896Z,82.06
2023-04-16T07:00:42.823Z,81.25
2023-04-16T07:03:45.675Z,80.75
2023-04-16T07:06:48.458Z,80.68
2023-04-16T07:09:50.952Z,80.36
2023-04-16T07:12:53.636Z,79.95
2023-04-16T07:15:56.002Z,79.84
2023-04-16T07:18:58.714Z,80.20
2023-04-16T07:22:01.340Z,79.77
2023-04-16T07:25:04.393Z,79.18
2023-04-16T07:28:06.682Z,78.77
2023-04-16T07:31:09.420Z,78.35
2023-04-16T07:34:12.124Z,78.26
2023-04-16T07:37:14.740Z,78.35
2023-04-16T07:40:17.191Z,77.96
2023-04-16T07:43:19.790Z,77.60
2023-04-16T07:46:22.157Z,77.57
2023-04-16T07:49:24.914Z,77.27
2023-04-16T07:52:27.224Z,76.85
2023-04-16T07:55:29.832Z,75.75
2023-04-16T07:58:32.183Z,75.45
2023-04-16T08:01:34.906Z,74.81
2023-04-16T08:04:37.842Z,74.64
2023-04-16T08:07:40.311Z,74.16
2023-04-16T08:10:42.916Z,73.86
2023-04-16T08:13:45.409Z,73.58
2023-04-16T08:16:48.019Z,73.93
2023-04-16T08:19:50.408Z,73.32
2023-04-16T08:22:54.897Z,72.36
2023-04-16T08:25:57.515Z,71.69
2023-04-16T08:29:00.352Z,71.19
2023-04-16T08:32:02.838Z,70.78
2023-04-16T08:35:06.035Z,70.65
2023-04-16T08:38:08.299Z,70.40
2023-04-16T08:41:13.455Z,71.24
2023-04-16T08:44:27.845Z,71.18
2023-04-16T08:47:34.461Z,71.03
2023-04-16T08:50:37.319Z,70.27
2023-04-16T08:53:51.989Z,70.06
2023-04-16T08:56:55.804Z,69.62
2023-04-16T08:59:59.663Z,68.99
2023-04-16T09:03:03.298Z,67.75
2023-04-16T09:06:07.545Z,67.29
2023-04-16T09:09:12.668Z,67.02
2023-04-16T09:12:15.737Z,65.95
2023-04-16T09:15:20.984Z,64.47
2023-04-16T09:18:24.480Z,64.30
2023-04-16T09:21:28.033Z,64.59
2023-04-16T09:24:31.617Z,65.20
2023-04-16T09:27:33.937Z,65.53
2023-04-16T09:30:37.604Z,65.91
2023-04-16T09:33:40.510Z,66.05
2023-04-16T09:36:43.079Z,66.00
2023-04-16T09:39:54.020Z,66.13
2023-04-16T09:43:00.702Z,65.95
2023-04-16T09:46:08.104Z,65.91
2023-04-16T09:49:15.529Z,66.55
2023-04-16T09:52:22.990Z,66.76
2023-04-16T09:55:27.771Z,66.71
2023-04-16T09:58:30.329Z,66.63
2023-04-16T10:01:33.036Z,66.60
2023-04-16T10:04:49.594Z,66.39
2023-04-16T10:07:52.758Z,65.82
2023-04-16T10:10:56.401Z,65.17
2023-04-16T10:13:58.827Z,64.70
2023-04-16T10:17:02.390Z,64.13
2023-04-16T10:20:07.227Z,63.57
2023-04-16T10:23:10.385Z,63.08
2023-04-16T10:26:13.658Z,62.43
2023-04-16T10:29:16.711Z,61.82
2023-04-16T10:32:21.940Z,61.21
2023-04-16T10:35:25.789Z,60.67
2023-04-16T10:38:28.525Z,60.10
2023-04-16T10:41:33.701Z,59.79
2023-04-16T10:44:36.585Z,59.31
2023-04-16T10:47:40.708Z,59.14
2023-04-16T10:50:43.203Z,58.71
2023-04-16T10:53:45.843Z,58.14
2023-04-16T10:56:48.141Z,58.00
2023-04-16T10:59:50.721Z,57.46
2023-04-16T11:02:54.397Z,56.78
2023-04-16T11:06:12.090Z,56.29
2023-04-16T11:09:49.825Z,55.52
2023-04-16T11:12:54.636Z,55.56
2023-04-16T11:15:58.402Z,54.76
2023-04-16T11:19:01.372Z,54.35
2023-04-16T11:22:04.284Z,53.89
2023-04-16T11:25:07.275Z,53.60
2023-04-16T11:28:09.586Z,54.04
2023-04-16T11:31:12.741Z,53.91
2023-04-16T11:34:16.811Z,53.60
2023-04-16T11:37:35.542Z,54.11
2023-04-16T11:40:37.959Z,54.19
2023-04-16T11:43:40.559Z,54.04
2023-04-16T11:46:42.975Z,53.60
2023-04-16T11:49:45.613Z,53.03
2023-04-16T11:52:49.128Z,52.83
2023-04-16T11:55:51.822Z,52.92
2023-04-16T11:59:16.615Z,53.20
2023-04-16T12:02:37.749Z,53.12
2023-04-16T12:05:40.838Z,52.60
2023-04-16T12:08:43.393Z,52.45
2023-04-16T12:11:46.561Z,52.21
2023-04-16T12:14:52.038Z,51.52
2023-04-16T12:18:08.169Z,51.38
2023-04-16T12:21:10.814Z,51.63
2023-04-16T12:24:15.466Z,51.59
2023-04-16T12:27:17.771Z,51.01
2023-04-16T12:30:22.874Z,50.46
2023-04-16T12:33:25.387Z,50.20
2023-04-16T12:36:28.110Z,49.45
2023-04-16T12:39:30.596Z,49.12
2023-04-16T12:42:37.376Z,48.77
2023-04-16T12:45:40.493Z,49.13
2023-04-16T12:48:43.669Z,48.90
2023-04-16T12:51:46.905Z,47.36
2023-04-16T12:54:49.601Z,47.58
2023-04-16T12:57:55.678Z,47.71
2023-04-16T13:00:58.751Z,48.34
2023-04-16T13:04:01.217Z,46.83
2023-04-16T13:07:04.004Z,45.37
2023-04-16T13:10:07.201Z,45.49
2023-04-16T13:13:09.876Z,46.65
2023-04-16T13:16:12.696Z,46.91
2023-04-16T13:19:15.984Z,47.52
2023-04-16T13:22:18.429Z,47.50
2023-04-16T13:25:21.131Z,47.73
2023-04-16T13:28:23.571Z,48.09
2023-04-16T13:31:26.707Z,48.11
2023-04-16T13:34:29.227Z,48.01
2023-04-16T13:37:31.831Z,48.52
2023-04-16T13:40:34.172Z,48.81
2023-04-16T13:43:37.335Z,48.77
2023-04-16T13:46:39.844Z,49.05
2023-04-16T13:49:42.696Z,48.90
2023-04-16T13:52:44.990Z,49.29
2023-04-16T13:55:49.518Z,49.08
2023-04-16T13:58:52.277Z,48.97
2023-04-16T14:01:55.101Z,48.90
2023-04-16T14:04:57.816Z,48.69
2023-04-16T14:08:00.391Z,48.75
2023-04-16T14:11:03.053Z,48.60
2023-04-16T14:14:05.486Z,48.68
2023-04-16T14:17:08.120Z,49.06
2023-04-16T14:20:12.608Z,48.74
2023-04-16T14:23:15.186Z,49.01
2023-04-16T14:26:17.577Z,48.81
2023-04-16T14:29:20.258Z,48.89
2023-04-16T14:32:23.298Z,49.06
2023-04-16T14:35:26.549Z,48.96
2023-04-16T14:38:28.971Z,48.95
2023-04-16T14:41:31.722Z,48.77
2023-04-16T14:44:34.132Z,48.05
2023-04-16T14:47:38.473Z,47.05
2023-04-16T14:50:43.946Z,46.94
2023-04-16T14:53:46.895Z,46.70
2023-04-16T14:56:50.032Z,46.18
2023-04-16T14:59:52.620Z,46.03
2023-04-16T15:02:55.681Z,45.98
2023-04-16T15:05:59.341Z,45.77
2023-04-16T15:09:01.962Z,45.93
2023-04-16T15:12:04.758Z,45.55
2023-04-16T15:15:08.141Z,45.93
2023-04-16T15:18:10.952Z,45.77
2023-04-16T15:21:13.618Z,45.90
2023-04-16T15:24:16.254Z,45.56
2023-04-16T15:27:19.433Z,45.59
2023-04-16T15:30:22.072Z,45.32
2023-04-16T15:33:24.892Z,45.60
2023-04-16T15:36:27.541Z,45.51
2023-04-16T15:39:31.573Z,44.91
2023-04-16T15:42:34.775Z,44.81
2023-04-16T15:45:37.562Z,44.68
2023-04-16T15:48:40.232Z,43.29
2023-04-16T15:51:42.610Z,43.35
2023-04-16T15:54:45.839Z,42.79
2023-04-16T15:57:48.259Z,42.53
2023-04-16T16:00:50.895Z,43.13
2023-04-16T16:03:53.912Z,43.48
2023-04-16T16:06:56.685Z,43.62
2023-04-16T16:09:59.593Z,44.24
2023-04-16T16:13:07.354Z,44.59
2023-04-16T16:16:10.006Z,44.86
2023-04-16T16:19:12.587Z,45.18
2023-04-16T16:22:16.024Z,45.44
2023-04-16T16:25:18.819Z,45.80
2023-04-16T16:28:21.590Z,46.11
2023-04-16T16:31:24.537Z,46.41
2023-04-16T16:34:28.207Z,46.59
2023-04-16T16:37:30.527Z,46.95
2023-04-16T16:40:33.310Z,47.29
2023-04-16T16:43:36.776Z,47.54
2023-04-16T16:46:39.538Z,47.59
2023-04-16T16:49:41.926Z,48.08
2023-04-16T16:52:44.832Z,48.07
2023-04-16T16:55:47.236Z,48.21
2023-04-16T16:58:49.894Z,48.19
2023-04-16T17:01:52.295Z,48.58
2023-04-16T17:04:55.045Z,48.71
2023-04-16T17:07:57.431Z,48.59
2023-04-16T17:11:03.556Z,48.88
2023-04-16T17:14:06.027Z,49.06
2023-04-16T17:17:08.908Z,49.47
2023-04-16T17:20:12.567Z,49.51
2023-04-16T17:23:15.639Z,50.16
2023-04-16T17:26:17.957Z,50.85
2023-04-16T17:29:25.804Z,51.13
2023-04-16T17:32:29.686Z,51.61
2023-04-16T17:35:32.406Z,51.79
2023-04-16T17:38:34.799Z,52.05
2023-04-16T17:41:37.452Z,52.10
2023-04-16T17:44:39.771Z,52.22
2023-04-16T17:47:42.494Z,52.42
2023-04-16T17:50:44.824Z,52.45
2023-04-16T17:53:47.626Z,52.55
2023-04-16T17:56:49.933Z,52.62
2023-04-16T17:59:52.768Z,52.96
2023-04-16T18:02:56.752Z,53.25
2023-04-16T18:05:59.984Z,53.50
2023-04-16T18:09:04.816Z,53.85
2023-04-16T18:12:08.044Z,54.14
2023-04-16T18:15:10.740Z,54.72
2023-04-16T18:18:13.501Z,55.02
2023-04-16T18:21:15.836Z,55.67
2023-04-16T18:24:18.416Z,56.10
2023-04-16T18:27:21.597Z,56.41
2023-04-16T18:30:26.634Z,56.89
2023-04-16T18:33:49.991Z,57.34
2023-04-16T18:36:52.277Z,57.56
2023-04-16T18:39:57.784Z,57.95
2023-04-16T18:43:00.697Z,57.99
2023-04-16T18:46:03.094Z,58.22
2023-04-16T18:49:05.969Z,58.32
2023-04-16T18:52:08.768Z,58.69
2023-04-16T18:55:11.362Z,57.95
2023-04-16T18:58:13.742Z,57.71
2023-04-16T19:01:16.535Z,57.75
2023-04-16T19:04:19.522Z,57.60
2023-04-16T19:07:22.264Z,58.21
2023-04-16T19:10:24.636Z,57.21
2023-04-16T19:13:27.399Z,57.33
2023-04-16T19:16:29.814Z,57.06
2023-04-16T19:19:32.469Z,57.05
2023-04-16T19:22:34.778Z,57.97
2023-04-16T19:25:37.479Z,57.94
2023-04-16T19:28:40.007Z,57.49
2023-04-16T19:31:42.713Z,57.19
2023-04-16T19:34:45.106Z,57.49
2023-04-16T19:37:50.523Z,57.48
2023-04-16T19:40:52.981Z,57.93
2023-04-16T19:43:55.691Z,58.01
2023-04-16T19:46:58.925Z,57.77
2023-04-16T19:50:07.899Z,57.71
2023-04-16T19:53:11.332Z,57.01
2023-04-16T19:56:15.908Z,56.73
2023-04-16T19:59:18.371Z,56.71
2023-04-16T20:02:21.072Z,56.44
2023-04-16T20:05:26.424Z,56.32
2023-04-16T20:08:28.744Z,56.15
2023-04-16T20:11:31.418Z,56.14
2023-04-16T20:14:33.725Z,55.99
2023-04-16T20:17:36.373Z,55.91
2023-04-16T20:20:38.736Z,55.77
2023-04-16T20:23:41.426Z,55.78
2023-04-16T20:26:43.769Z,55.61
2023-04-16T20:29:46.469Z,55.42
2023-04-16T20:32:48.956Z,55.21
2023-04-16T20:35:52.274Z,55.14
2023-04-16T20:38:54.708Z,55.08
2023-04-16T20:41:57.321Z,55.01
2023-04-16T20:45:00.710Z,54.87
2023-04-16T20:48:03.845Z,54.92
2023-04-16T20:51:10.306Z,55.07
2023-04-16T20:54:13.100Z,55.14
2023-04-16T20:57:15.588Z,55.35
2023-04-16T21:00:18.413Z,55.45
2023-04-16T21:03:21.577Z,55.54
2023-04-16T21:06:24.319Z,55.34
2023-04-16T21:09:27.124Z,55.44
2023-04-16T21:12:29.840Z,55.88
2023-04-16T21:15:32.774Z,55.75
2023-04-16T21:18:36.891Z,56.02
2023-04-16T21:21:39.632Z,56.13
2023-04-16T21:24:42.265Z,56.06
2023-04-16T21:27:44.641Z,56.38
2023-04-16T21:30:51.770Z,56.26
2023-04-16T21:33:54.116Z,56.25
2023-04-16T21:36:56.679Z,56.19
2023-04-16T21:39:59.120Z,56.58
2023-04-16T21:43:01.714Z,57.15
2023-04-16T21:46:04.107Z,57.36
2023-04-16T21:49:06.778Z,57.32
2023-04-16T21:52:14.185Z,57.59
2023-04-16T21:55:16.951Z,57.82
2023-04-16T21:58:19.298Z,57.92
2023-04-16T22:01:22.132Z,57.87
2023-04-16T22:04:26.470Z,57.28
2023-04-16T22:07:28.969Z,57.14
2023-04-16T22:10:31.567Z,56.85
2023-04-16T22:13:33.892Z,56.80
2023-04-16T22:16:36.675Z,56.55
2023-04-16T22:19:39.463Z,56.50
2023-04-16T22:22:42.603Z,56.34
2023-04-16T22:25:45.076Z,56.14
2023-04-16T22:28:47.673Z,56.13
2023-04-16T22:31:50.148Z,55.84
2023-04-16T22:34:52.775Z,55.60
2023-04-16T22:37:55.127Z,55.61
2023-04-16T22:40:57.751Z,55.33
2023-04-16T22:44:00.133Z,55.54
2023-04-16T22:47:02.860Z,55.41
2023-04-16T22:50:06.327Z,55.57
2023-04-16T22:53:08.964Z,55.56
2023-04-16T22:56:11.884Z,56.03
2023-04-16T22:59:14.540Z,56.01
2023-04-16T23:02:17.378Z,55.90
2023-04-16T23:05:20.290Z,56.00
2023-04-16T23:08:22.676Z,56.06
2023-04-16T23:11:25.436Z,56.29
2023-04-16T23:14:27.774Z,56.39
2023-04-16T23:17:30.408Z,56.34
2023-04-16T23:20:32.726Z,56.57
2023-04-16T23:23:35.321Z,56.61
2023-04-16T23:26:37.605Z,56.62
2023-04-16T23:29:40.203Z,56.59
2023-04-16T23:32:42.500Z,56.67
2023-04-16T23:35:46.692Z,56.59
2023-04-16T23:38:48.956Z,56.33
2023-04-16T23:41:51.538Z,56.70
2023-04-16T23:44:53.853Z,56.68
2023-04-16T23:47:56.501Z,56.76
2023-04-16T23:50:59.261Z,56.81
2023-04-16T23:54:02.000Z,56.97
2023-04-16T23:57:04.445Z,57.11
